createdAt,value
2019-03-20T00:02:06.939Z,3.86
2019-03-20T00:04:37.401Z,3.98
2019-03-20T00:07:07.971Z,4.07
2019-03-20T00:09:38.835Z,4.15
2019-03-20T00:12:09.908Z,4.21
2019-03-20T00:14:40.460Z,4.27
2019-03-20T00:17:10.869Z,4.31
2019-03-20T00:19:41.671Z,4.34
2019-03-20T00:22:12.081Z,4.33
2019-03-20T00:24:43.246Z,4.33
2019-03-20T00:27:14.402Z,4.28
2019-03-20T00:29:44.890Z,4.15
2019-03-20T00:32:15.912Z,4.09
2019-03-20T00:34:46.389Z,3.99
2019-03-20T00:37:16.741Z,3.92
2019-03-20T00:39:52.454Z,3.86
2019-03-20T00:42:23.777Z,3.83
2019-03-20T00:44:56.971Z,3.75
2019-03-20T00:47:28.187Z,3.66
2019-03-20T00:49:59.175Z,3.57
2019-03-20T00:52:30.580Z,3.50
2019-03-20T00:55:04.746Z,3.41
2019-03-20T00:57:35.326Z,3.42
2019-03-20T01:00:07.102Z,3.34
2019-03-20T01:02:37.481Z,3.29
2019-03-20T01:05:12.596Z,3.23
2019-03-20T01:07:40.272Z,3.17
2019-03-20T01:10:13.682Z,3.09
2019-03-20T01:12:45.226Z,3.03
2019-03-20T01:15:16.502Z,2.95
2019-03-20T01:17:47.208Z,2.91
2019-03-20T01:20:23.540Z,2.85
2019-03-20T01:22:55.157Z,2.76
2019-03-20T01:25:25.452Z,2.68
2019-03-20T01:27:58.368Z,2.64
2019-03-20T01:30:33.025Z,2.68
2019-03-20T01:33:05.934Z,2.65
2019-03-20T01:35:37.627Z,2.64
2019-03-20T01:38:08.349Z,2.61
2019-03-20T01:40:40.604Z,2.61
2019-03-20T01:43:12.173Z,2.58
2019-03-20T01:45:42.898Z,2.53
2019-03-20T01:48:14.490Z,2.60
2019-03-20T01:50:44.755Z,2.59
2019-03-20T01:53:15.809Z,2.55
2019-03-20T01:55:46.048Z,2.52
2019-03-20T01:59:07.205Z,2.49
2019-03-20T02:06:51.171Z,2.46
2019-03-20T02:09:29.193Z,2.45
2019-03-20T02:12:01.039Z,2.41
2019-03-20T02:14:31.197Z,2.36
2019-03-20T02:17:02.706Z,2.27
2019-03-20T02:19:33.158Z,2.20
2019-03-20T02:22:04.597Z,2.17
2019-03-20T02:24:35.349Z,2.11
2019-03-20T02:27:06.237Z,2.08
2019-03-20T02:29:36.620Z,2.09
2019-03-20T02:32:07.119Z,2.08
2019-03-20T02:34:38.143Z,2.05
2019-03-20T02:37:08.401Z,2.05
2019-03-20T02:39:39.441Z,2.03
2019-03-20T02:42:09.821Z,2.03
2019-03-20T02:44:40.448Z,2.11
2019-03-20T02:47:10.999Z,2.12
2019-03-20T02:49:41.948Z,2.15
2019-03-20T02:52:12.303Z,2.12
2019-03-20T02:54:43.167Z,2.15
2019-03-20T02:57:13.497Z,2.20
2019-03-20T02:59:44.451Z,2.19
2019-03-20T03:02:20.143Z,2.17
2019-03-20T03:04:57.842Z,2.10
2019-03-20T03:07:35.420Z,1.92
2019-03-20T03:10:13.899Z,1.67
2019-03-20T03:12:44.529Z,1.50
2019-03-20T03:15:15.112Z,1.35
2019-03-20T03:17:45.669Z,1.12
2019-03-20T03:20:17.309Z,1.00
2019-03-20T03:22:47.569Z,0.91
2019-03-20T03:25:18.021Z,0.79
2019-03-20T03:27:54.153Z,0.75
2019-03-20T03:30:24.642Z,0.71
2019-03-20T03:32:55.899Z,0.62
2019-03-20T03:35:26.429Z,0.57
2019-03-20T03:37:57.942Z,0.53
2019-03-20T03:40:29.427Z,0.48
2019-03-20T03:43:00.080Z,0.46
2019-03-20T03:45:30.955Z,0.37
2019-03-20T03:48:02.347Z,0.33
2019-03-20T03:50:32.923Z,0.29
2019-03-20T03:53:03.734Z,0.27
2019-03-20T03:55:34.304Z,0.25
2019-03-20T03:58:04.741Z,0.31
2019-03-20T04:00:35.513Z,0.34
2019-03-20T04:03:07.107Z,0.51
2019-03-20T04:05:37.495Z,0.77
2019-03-20T04:08:07.975Z,1.06
2019-03-20T04:10:40.472Z,1.30
2019-03-20T04:13:10.715Z,1.44
2019-03-20T04:15:41.701Z,1.49
2019-03-20T04:18:11.987Z,1.54
2019-03-20T04:20:49.466Z,1.60
2019-03-20T04:23:19.848Z,1.52
2019-03-20T04:25:50.004Z,1.28
2019-03-20T04:28:20.444Z,0.95
2019-03-20T04:30:51.513Z,0.68
2019-03-20T04:33:22.073Z,0.55
2019-03-20T04:35:53.276Z,0.36
2019-03-20T04:38:25.799Z,0.26
2019-03-20T04:41:03.292Z,0.29
2019-03-20T04:43:34.207Z,0.28
2019-03-20T04:46:04.566Z,0.18
2019-03-20T04:48:34.972Z,0.13
2019-03-20T04:51:05.953Z,0.13
2019-03-20T04:53:37.732Z,0.12
2019-03-20T04:56:09.957Z,0.11
2019-03-20T04:58:43.564Z,0.12
2019-03-20T05:01:14.696Z,0.14
2019-03-20T05:03:45.116Z,0.18
2019-03-20T05:06:15.757Z,0.13
2019-03-20T05:08:47.264Z,0.09
2019-03-20T05:11:18.641Z,0.06
2019-03-20T05:13:49.545Z,0.12
2019-03-20T05:16:20.096Z,0.02
2019-03-20T05:18:50.512Z,0.03
2019-03-20T05:21:23.730Z,0.08
2019-03-20T05:23:57.053Z,0.23
2019-03-20T05:26:27.492Z,0.29
2019-03-20T05:28:57.654Z,0.49
2019-03-20T05:31:28.905Z,0.81
2019-03-20T05:33:59.167Z,1.28
2019-03-20T05:36:30.684Z,1.53
2019-03-20T05:39:00.839Z,1.98
2019-03-20T05:41:31.658Z,2.81
2019-03-20T05:44:02.321Z,3.29
2019-03-20T05:46:32.688Z,3.77
2019-03-20T05:49:05.075Z,4.34
2019-03-20T05:51:37.539Z,4.80
2019-03-20T05:54:09.917Z,5.35
2019-03-20T05:56:41.944Z,5.75
2019-03-20T05:59:12.772Z,6.40
2019-03-20T06:01:44.863Z,6.87
2019-03-20T06:04:15.285Z,7.32
2019-03-20T06:06:45.695Z,7.59
2019-03-20T06:09:16.158Z,8.10
2019-03-20T06:11:47.779Z,9.05
2019-03-20T06:14:18.186Z,9.60
2019-03-20T06:16:48.451Z,10.07
2019-03-20T06:19:18.816Z,10.46
2019-03-20T06:21:49.134Z,11.08
2019-03-20T06:24:19.471Z,11.53
2019-03-20T06:26:50.353Z,11.70
2019-03-20T06:29:20.695Z,11.60
2019-03-20T06:31:51.304Z,11.80
2019-03-20T06:34:21.522Z,11.65
2019-03-20T06:36:52.206Z,12.00
2019-03-20T06:39:22.651Z,12.48
2019-03-20T06:41:54.649Z,12.71
2019-03-20T06:44:28.887Z,12.31
2019-03-20T06:46:59.532Z,12.57
2019-03-20T06:49:30.381Z,12.62
2019-03-20T06:52:00.636Z,12.48
2019-03-20T06:54:36.126Z,12.91
2019-03-20T06:57:17.973Z,13.61
2019-03-20T07:00:30.993Z,14.06
2019-03-20T07:03:03.599Z,14.14
2019-03-20T07:06:06.612Z,14.01
2019-03-20T07:08:40.655Z,13.99
2019-03-20T07:11:29.394Z,13.56
2019-03-20T07:13:59.805Z,14.14
2019-03-20T07:16:30.481Z,14.32
2019-03-20T07:19:04.051Z,15.02
2019-03-20T07:21:34.398Z,15.40
2019-03-20T07:24:07.315Z,15.59
2019-03-20T07:26:40.225Z,15.79
2019-03-20T07:29:10.765Z,15.60
2019-03-20T07:31:41.521Z,15.54
2019-03-20T07:34:13.144Z,15.66
2019-03-20T07:36:43.429Z,14.94
2019-03-20T07:39:14.641Z,15.23
2019-03-20T07:41:45.082Z,14.77
2019-03-20T07:44:16.924Z,14.77
2019-03-20T07:46:47.625Z,15.33
2019-03-20T07:49:18.008Z,14.93
2019-03-20T07:51:48.638Z,14.73
2019-03-20T07:54:20.685Z,15.23
2019-03-20T07:56:51.970Z,15.18
2019-03-20T07:59:22.468Z,15.62
2019-03-20T08:01:54.135Z,14.91
2019-03-20T08:04:25.128Z,15.45
2019-03-20T08:06:57.508Z,16.51
2019-03-20T08:09:28.538Z,16.47
2019-03-20T08:11:58.800Z,16.73
2019-03-20T08:14:33.473Z,16.95
2019-03-20T08:17:06.248Z,15.65
2019-03-20T08:19:37.105Z,15.12
2019-03-20T08:22:09.653Z,15.35
2019-03-20T08:24:45.080Z,16.17
2019-03-20T08:27:15.431Z,17.13
2019-03-20T08:29:47.118Z,18.40
2019-03-20T08:32:17.992Z,17.60
2019-03-20T08:34:49.225Z,18.24
2019-03-20T08:37:20.320Z,18.10
2019-03-20T08:39:52.511Z,17.72
2019-03-20T08:42:25.070Z,16.56
2019-03-20T08:44:55.617Z,16.60
2019-03-20T08:47:27.327Z,17.47
2019-03-20T08:49:58.004Z,17.87
2019-03-20T08:52:29.061Z,18.45
2019-03-20T08:55:01.890Z,18.08
2019-03-20T08:57:34.483Z,18.64
2019-03-20T09:00:05.503Z,18.19
2019-03-20T09:02:36.246Z,17.63
2019-03-20T09:05:08.838Z,17.09
2019-03-20T09:07:47.424Z,16.95
2019-03-20T09:10:19.097Z,16.67
2019-03-20T09:12:51.634Z,15.89
2019-03-20T09:15:23.185Z,16.44
2019-03-20T09:17:54.858Z,17.82
2019-03-20T09:20:26.608Z,17.70
2019-03-20T09:22:57.227Z,17.36
2019-03-20T09:25:27.702Z,16.89
2019-03-20T09:27:59.830Z,17.42
2019-03-20T09:30:32.695Z,17.51
2019-03-20T09:33:05.808Z,17.03
2019-03-20T09:35:37.157Z,15.13
2019-03-20T09:38:16.432Z,15.92
2019-03-20T09:40:47.633Z,16.48
2019-03-20T09:43:18.874Z,16.28
2019-03-20T09:45:56.882Z,15.86
2019-03-20T09:48:26.826Z,16.79
2019-03-20T09:51:09.316Z,16.39
2019-03-20T09:53:39.811Z,16.50
2019-03-20T09:56:11.485Z,16.62
2019-03-20T09:58:43.124Z,15.39
2019-03-20T10:01:17.903Z,15.68
2019-03-20T10:03:50.270Z,16.28
2019-03-20T10:06:30.105Z,15.72
2019-03-20T10:09:02.014Z,16.14
2019-03-20T10:11:33.176Z,16.25
2019-03-20T10:14:03.863Z,16.77
2019-03-20T10:16:38.601Z,15.73
2019-03-20T10:19:11.090Z,15.82
2019-03-20T10:21:42.658Z,16.00
2019-03-20T10:24:15.175Z,16.02
2019-03-20T10:26:46.070Z,16.52
2019-03-20T10:29:18.637Z,16.95
2019-03-20T10:31:50.228Z,16.70
2019-03-20T10:34:20.741Z,17.47
2019-03-20T10:36:53.300Z,17.65
2019-03-20T10:39:23.886Z,16.76
2019-03-20T10:41:54.662Z,17.01
2019-03-20T10:44:25.414Z,16.00
2019-03-20T10:46:59.332Z,16.11
2019-03-20T10:49:29.654Z,16.07
2019-03-20T10:52:02.307Z,16.67
2019-03-20T10:54:36.951Z,17.23
2019-03-20T10:57:07.615Z,16.95
2019-03-20T10:59:37.998Z,17.61
2019-03-20T11:02:08.353Z,17.76
2019-03-20T11:04:43.840Z,17.77
2019-03-20T11:07:16.215Z,17.73
2019-03-20T11:09:47.936Z,17.30
2019-03-20T11:12:18.708Z,16.10
2019-03-20T11:14:50.087Z,16.20
2019-03-20T11:17:21.040Z,16.53
2019-03-20T11:22:43.981Z,17.13
2019-03-20T11:25:18.105Z,16.28
2019-03-20T11:27:49.126Z,16.77
2019-03-20T11:30:26.412Z,16.99
2019-03-20T11:32:57.756Z,17.61
2019-03-20T11:35:30.121Z,17.79
2019-03-20T11:38:04.832Z,18.48
2019-03-20T11:40:36.547Z,17.90
2019-03-20T11:43:08.138Z,17.47
2019-03-20T11:45:44.030Z,16.83
2019-03-20T11:48:26.197Z,16.98
2019-03-20T11:50:56.881Z,17.25
2019-03-20T11:53:27.705Z,16.30
2019-03-20T11:55:58.013Z,16.38
2019-03-20T11:58:29.669Z,17.18
2019-03-20T12:01:01.715Z,17.71
2019-03-20T12:03:34.465Z,17.89
2019-03-20T12:06:05.506Z,17.75
2019-03-20T12:08:37.672Z,18.02
2019-03-20T12:11:08.285Z,18.01
2019-03-20T12:13:38.737Z,18.70
2019-03-20T12:16:08.926Z,18.56
2019-03-20T12:18:40.684Z,18.39
2019-03-20T12:21:13.271Z,17.03
2019-03-20T12:23:44.463Z,16.59
2019-03-20T12:26:14.599Z,16.97
2019-03-20T12:28:45.132Z,17.65
2019-03-20T12:31:18.084Z,18.72
2019-03-20T12:33:48.274Z,18.45
2019-03-20T12:36:20.865Z,16.93
2019-03-20T12:38:56.344Z,16.97
2019-03-20T12:41:27.646Z,16.20
2019-03-20T12:43:57.919Z,15.87
2019-03-20T12:46:40.964Z,16.63
2019-03-20T12:49:01.542Z,16.53
2019-03-20T12:51:35.408Z,16.67
2019-03-20T12:54:07.694Z,16.55
2019-03-20T12:56:38.451Z,16.35
2019-03-20T12:59:08.719Z,15.80
2019-03-20T13:01:38.963Z,16.27
2019-03-20T13:04:09.388Z,16.15
2019-03-20T13:06:39.786Z,16.32
2019-03-20T13:09:11.037Z,16.08
2019-03-20T13:11:41.259Z,16.69
2019-03-20T13:14:11.356Z,17.13
2019-03-20T13:16:43.290Z,16.45
2019-03-20T13:19:14.109Z,16.66
2019-03-20T13:21:44.290Z,16.68
2019-03-20T13:24:14.537Z,16.82
2019-03-20T13:26:45.328Z,16.05
2019-03-20T13:29:15.467Z,15.97
2019-03-20T13:31:45.720Z,16.39
2019-03-20T13:34:15.725Z,17.00
2019-03-20T13:36:46.369Z,16.96
2019-03-20T13:39:16.439Z,17.10
2019-03-20T13:41:46.780Z,16.63
2019-03-20T13:44:16.941Z,16.37
2019-03-20T13:46:47.591Z,16.58
2019-03-20T13:49:18.245Z,16.94
2019-03-20T13:51:49.046Z,17.04
2019-03-20T13:54:19.372Z,16.91
2019-03-20T13:56:51.892Z,17.60
2019-03-20T13:59:22.672Z,18.07
2019-03-20T14:01:53.258Z,17.81
2019-03-20T14:04:24.597Z,17.01
2019-03-20T14:06:56.428Z,16.41
2019-03-20T14:09:27.430Z,16.69
2019-03-20T14:11:57.491Z,17.00
2019-03-20T14:14:27.751Z,16.52
2019-03-20T14:16:58.587Z,16.59
2019-03-20T14:19:29.419Z,16.65
2019-03-20T14:22:00.260Z,16.67
2019-03-20T14:24:30.969Z,17.04
2019-03-20T14:27:01.376Z,16.39
2019-03-20T14:29:31.752Z,15.88
2019-03-20T14:32:02.673Z,15.68
2019-03-20T14:34:34.870Z,15.55
2019-03-20T14:37:11.866Z,15.32
2019-03-20T14:39:43.231Z,15.65
2019-03-20T14:42:13.559Z,15.50
2019-03-20T14:44:47.136Z,15.31
2019-03-20T14:47:17.696Z,15.29
2019-03-20T14:49:49.948Z,15.14
2019-03-20T14:52:26.881Z,15.08
2019-03-20T14:54:56.339Z,15.31
2019-03-20T14:57:26.712Z,15.41
2019-03-20T14:59:58.474Z,15.76
2019-03-20T15:02:29.165Z,15.53
2019-03-20T15:05:01.113Z,15.48
2019-03-20T15:07:35.184Z,15.60
2019-03-20T15:10:06.008Z,15.54
2019-03-20T15:12:36.997Z,15.50
2019-03-20T15:15:13.317Z,15.13
2019-03-20T15:17:43.743Z,15.01
2019-03-20T15:20:15.857Z,15.04
2019-03-20T15:22:46.628Z,14.50
2019-03-20T15:25:18.608Z,14.52
2019-03-20T15:27:49.152Z,14.37
2019-03-20T15:30:19.499Z,14.67
2019-03-20T15:32:49.862Z,14.67
2019-03-20T15:35:20.218Z,14.55
2019-03-20T15:37:52.897Z,14.83
2019-03-20T15:40:23.872Z,14.91
2019-03-20T15:42:55.525Z,15.02
2019-03-20T15:45:25.959Z,14.85
2019-03-20T15:47:56.635Z,14.93
2019-03-20T15:50:27.846Z,14.93
2019-03-20T15:52:58.576Z,14.38
2019-03-20T15:55:30.494Z,14.40
2019-03-20T15:58:01.911Z,14.20
2019-03-20T16:00:33.571Z,14.11
2019-03-20T16:03:06.931Z,14.06
2019-03-20T16:05:38.313Z,14.18
2019-03-20T16:08:08.964Z,14.26
2019-03-20T16:10:39.865Z,14.07
2019-03-20T16:13:12.596Z,13.82
2019-03-20T16:15:46.125Z,13.80
2019-03-20T16:18:16.840Z,13.77
2019-03-20T16:20:47.146Z,13.74
2019-03-20T16:23:17.467Z,13.74
2019-03-20T16:25:47.717Z,13.87
2019-03-20T16:28:18.231Z,13.79
2019-03-20T16:30:48.942Z,13.68
2019-03-20T16:33:19.253Z,13.49
2019-03-20T16:35:49.669Z,13.41
2019-03-20T16:38:23.535Z,13.36
2019-03-20T16:40:56.305Z,13.22
2019-03-20T16:43:26.704Z,13.11
2019-03-20T16:45:57.048Z,13.00
2019-03-20T16:48:28.201Z,12.89
2019-03-20T16:50:59.127Z,12.84
2019-03-20T16:53:29.969Z,12.77
2019-03-20T16:56:00.264Z,12.73
2019-03-20T16:58:30.519Z,12.65
2019-03-20T17:01:01.240Z,12.53
2019-03-20T17:03:31.678Z,12.47
2019-03-20T17:06:01.922Z,12.31
2019-03-20T17:08:32.843Z,12.26
2019-03-20T17:11:03.213Z,12.18
2019-03-20T17:13:34.599Z,12.09
2019-03-20T17:16:05.316Z,11.99
2019-03-20T17:18:36.346Z,11.85
2019-03-20T17:21:07.160Z,11.74
2019-03-20T17:23:37.449Z,11.61
2019-03-20T17:26:07.698Z,11.52
2019-03-20T17:28:38.050Z,11.40
2019-03-20T17:31:10.202Z,11.28
2019-03-20T17:33:40.499Z,11.17
2019-03-20T17:36:10.708Z,10.97
2019-03-20T17:38:40.928Z,10.77
2019-03-20T17:41:11.521Z,10.63
2019-03-20T17:43:41.891Z,10.50
2019-03-20T17:46:12.447Z,10.35
2019-03-20T17:48:44.671Z,10.26
2019-03-20T17:51:15.251Z,10.12
2019-03-20T17:53:45.733Z,10.01
2019-03-20T17:56:16.429Z,9.90
2019-03-20T17:58:46.704Z,9.81
2019-03-20T18:01:17.821Z,9.76
2019-03-20T18:03:48.106Z,9.71
2019-03-20T18:06:20.690Z,9.66
2019-03-20T18:08:51.153Z,9.64
2019-03-20T18:11:21.761Z,9.67
2019-03-20T18:13:52.193Z,9.65
2019-03-20T18:16:23.842Z,9.62
2019-03-20T18:18:54.226Z,9.57
2019-03-20T18:21:24.496Z,9.56
2019-03-20T18:23:54.817Z,9.57
2019-03-20T18:26:28.276Z,9.60
2019-03-20T18:28:59.127Z,9.55
2019-03-20T18:31:29.830Z,9.49
2019-03-20T18:34:00.067Z,9.45
2019-03-20T18:36:30.386Z,9.31
2019-03-20T18:39:00.685Z,9.22
2019-03-20T18:41:31.803Z,9.12
2019-03-20T18:44:02.516Z,9.02
2019-03-20T18:46:34.835Z,8.94
2019-03-20T18:49:05.719Z,8.94
2019-03-20T18:51:36.118Z,8.96
2019-03-20T18:54:11.301Z,8.97
2019-03-20T18:56:47.181Z,9.00
2019-03-20T18:59:18.035Z,9.03
2019-03-20T19:01:48.575Z,9.05
2019-03-20T19:04:19.150Z,9.06
2019-03-20T19:06:49.817Z,9.06
2019-03-20T19:09:21.037Z,8.99
2019-03-20T19:11:51.790Z,8.92
2019-03-20T19:14:22.012Z,8.78
2019-03-20T19:16:52.481Z,8.69
2019-03-20T19:19:22.635Z,8.63
2019-03-20T19:21:53.118Z,8.38
2019-03-20T19:24:31.177Z,8.22
2019-03-20T19:27:07.269Z,8.09
2019-03-20T19:29:38.104Z,8.04
2019-03-20T19:32:08.947Z,8.00
2019-03-20T19:34:40.038Z,7.98
2019-03-20T19:37:11.608Z,7.97
2019-03-20T19:39:42.001Z,7.90
2019-03-20T19:42:20.033Z,7.80
2019-03-20T19:44:44.917Z,7.78
2019-03-20T19:47:15.406Z,7.70
2019-03-20T19:49:46.197Z,7.59
2019-03-20T19:52:16.368Z,7.50
2019-03-20T19:54:47.268Z,7.40
2019-03-20T19:57:18.008Z,7.21
2019-03-20T19:59:50.836Z,7.08
2019-03-20T20:02:22.228Z,7.02
2019-03-20T20:04:53.813Z,7.00
2019-03-20T20:07:24.592Z,6.98
2019-03-20T20:09:55.438Z,7.06
2019-03-20T20:12:31.174Z,7.17
2019-03-20T20:14:59.454Z,7.34
2019-03-20T20:17:30.484Z,7.56
2019-03-20T20:20:02.386Z,7.69
2019-03-20T20:22:33.236Z,7.80
2019-03-20T20:25:04.601Z,7.95
2019-03-20T20:27:35.630Z,8.01
2019-03-20T20:30:06.337Z,8.06
2019-03-20T20:32:37.964Z,8.14
2019-03-20T20:35:09.611Z,8.08
2019-03-20T20:37:42.688Z,8.04
2019-03-20T20:40:15.363Z,7.67
2019-03-20T20:42:47.700Z,7.52
2019-03-20T20:45:18.507Z,7.43
2019-03-20T20:47:52.052Z,7.36
2019-03-20T20:50:22.515Z,7.31
2019-03-20T20:52:53.207Z,7.37
2019-03-20T20:55:23.681Z,7.46
2019-03-20T20:57:57.736Z,7.49
2019-03-20T21:00:28.781Z,7.52
2019-03-20T21:02:59.142Z,7.57
2019-03-20T21:05:29.930Z,7.57
2019-03-20T21:08:01.790Z,7.29
2019-03-20T21:10:32.988Z,7.10
2019-03-20T21:13:21.294Z,6.93
2019-03-20T21:16:30.114Z,6.80
2019-03-20T21:19:39.158Z,6.67
2019-03-20T21:22:49.710Z,6.53
2019-03-20T21:25:25.349Z,6.43
2019-03-20T21:28:58.633Z,6.31
2019-03-20T21:32:00.123Z,6.30
2019-03-20T21:35:12.482Z,6.25
2019-03-20T21:38:13.526Z,6.22
2019-03-20T21:41:36.284Z,6.14
2019-03-20T21:44:51.726Z,6.08
2019-03-20T21:47:38.421Z,6.00
2019-03-20T21:50:43.592Z,5.96
2019-03-20T21:53:17.577Z,5.95
2019-03-20T21:56:39.475Z,5.93
2019-03-20T21:59:59.080Z,6.01
2019-03-20T22:02:49.886Z,6.01
2019-03-20T22:05:30.701Z,6.09
2019-03-20T22:08:01.718Z,6.25
2019-03-20T22:11:14.473Z,6.26
2019-03-20T22:14:01.103Z,6.29
2019-03-20T22:17:26.949Z,6.34
2019-03-20T22:20:22.479Z,6.37
2019-03-20T22:23:19.987Z,6.41
2019-03-20T22:26:46.465Z,6.40
2019-03-20T22:29:32.651Z,6.49
2019-03-20T22:32:33.005Z,6.54
2019-03-20T22:35:30.146Z,6.59
2019-03-20T22:38:03.027Z,6.60
2019-03-20T22:41:08.739Z,6.67
2019-03-20T22:44:02.047Z,6.77
2019-03-20T22:47:08.779Z,6.83
2019-03-20T22:50:08.964Z,6.78
2019-03-20T22:53:14.272Z,6.83
2019-03-20T22:56:19.521Z,6.93
2019-03-20T22:58:50.433Z,7.01
2019-03-20T23:01:38.160Z,7.07
2019-03-20T23:04:31.141Z,7.21
2019-03-20T23:07:02.625Z,7.14
2019-03-20T23:09:33.965Z,7.12
2019-03-20T23:12:08.295Z,7.07
2019-03-20T23:14:39.133Z,7.13
2019-03-20T23:17:10.053Z,7.16
2019-03-20T23:19:42.487Z,7.24
2019-03-20T23:22:13.791Z,7.32
2019-03-20T23:24:45.434Z,7.37
2019-03-20T23:27:20.018Z,7.35
2019-03-20T23:29:51.248Z,7.41
2019-03-20T23:32:22.783Z,7.46
2019-03-20T23:34:57.373Z,7.53
2019-03-20T23:37:29.548Z,7.62
2019-03-20T23:40:01.014Z,7.65
2019-03-20T23:42:45.581Z,7.69
2019-03-20T23:45:18.102Z,7.60
2019-03-20T23:48:21.456Z,7.63
2019-03-20T23:50:57.779Z,7.69
2019-03-20T23:53:29.893Z,7.71
2019-03-20T23:56:00.819Z,7.73
2019-03-20T23:58:34.945Z,7.81
